Hyundai Republic — A8IL3 — position and weather

sailwx.info

Track history (hours):
 
Tides and Currents Weather Stations Pressure Air Temp Water Temp Dewpoint Dewpoint Depression Visibility Wind Speed Wind Dir Waves Ship Positions

Hyundai Republic

Last reported at 2016-Apr-26 02:22 UTC. Time now 2016-May-05 18:00 UTC.
Position N 01°16' E 104°12'.
Warning: this ship's position is 9 days out of date.

Length 305 m; draft 8.3 m.

Type: Ship (hazmat cat A). MMSI: 636090994.

Date/timePositionNaut miles runAvg speedWind from/ knotsBaromVisibWave heightAir tempDewpointWater temp
2016-Apr-26 02:22N 01°16' E 104°12'8 9.5
2016-Apr-26 01:33N 01°17' E 104°04'1 0.4
2016-Apr-25 23:16N 01°18' E 104°03'0 0.0
2016-Apr-25 21:16N 01°18' E 104°03'0 0.0
2016-Apr-25 20:28N 01°18' E 104°03'0 0.0
2016-Apr-25 19:28N 01°18' E 104°03'0 0.1
2016-Apr-25 14:21N 01°18' E 104°03'0 0.0
2016-Apr-25 12:09N 01°18' E 104°03'0 0.0
2016-Apr-24 20:21N 01°18' E 104°03'0 0.0
2016-Apr-24 19:18N 01°18' E 104°03'0 0.0
2016-Apr-24 18:09N 01°18' E 104°03'0 0.0
2016-Apr-24 05:33N 01°18' E 104°04'3 2.8
2016-Apr-24 04:33N 01°18' E 104°07'2 1.8
2016-Apr-24 03:32N 01°18' E 104°08'  
Track history (hours):
 
Tides and Currents Weather Stations Pressure Air Temp Water Temp Dewpoint Dewpoint Depression Visibility Wind Speed Wind Dir Waves Ship Positions

Hyundai Republic

Last reported at 2016-Apr-26 02:22 UTC. Time now 2016-May-05 18:00 UTC.
Position N 01°16' E 104°12'.
Warning: this ship's position is 9 days out of date.

Length 305 m; draft 8.3 m.

Type: Ship (hazmat cat A). MMSI: 636090994.

Date/timePositionNaut miles runAvg speedWind from/ knotsBaromVisibWave heightAir tempDewpointWater temp
2016-Apr-26 02:22N 01°16' E 104°12'8 9.5
2016-Apr-26 01:33N 01°17' E 104°04'1 0.4
2016-Apr-25 23:16N 01°18' E 104°03'0 0.0
2016-Apr-25 21:16N 01°18' E 104°03'0 0.0
2016-Apr-25 20:28N 01°18' E 104°03'0 0.0
2016-Apr-25 19:28N 01°18' E 104°03'0 0.1
2016-Apr-25 14:21N 01°18' E 104°03'0 0.0
2016-Apr-25 12:09N 01°18' E 104°03'0 0.0
2016-Apr-24 20:21N 01°18' E 104°03'0 0.0
2016-Apr-24 19:18N 01°18' E 104°03'0 0.0
2016-Apr-24 18:09N 01°18' E 104°03'0 0.0
2016-Apr-24 05:33N 01°18' E 104°04'3 2.8
2016-Apr-24 04:33N 01°18' E 104°07'2 1.8
2016-Apr-24 03:32N 01°18' E 104°08'  

Dump ship's entire track history